Time;durP1;ratioP1;P1;durP2;ratioP2;P2;SDS_P1;SDS_P2;PMS_P1;PMS_P2;Temp;Humidity;BMP_temperature;BMP_pressure;BME280_temperature;BME280_humidity;BME280_pressure;Samples;Min_cycle;Max_cycle;Signal;HPM_P1;HPM_P2
2022/02/23 00:01:12;;;;;;;4.57;3.70;;;;;;;-0.31;68.85;99513.94;4997435;28;20056;-78
2022/02/23 00:03:38;;;;;;;4.25;3.83;;;;;;;-0.30;68.79;99520.94;4979698;28;20181;-80
2022/02/23 00:06:04;;;;;;;5.97;4.35;;;;;;;-0.22;68.81;99519.81;4996955;28;20546;-78
2022/02/23 00:08:30;;;;;;;6.30;4.10;;;;;;;-0.20;68.17;99523.25;4996662;28;20081;-79
2022/02/23 00:10:56;;;;;;;4.70;3.92;;;;;;;-0.16;67.83;99538.00;4996511;28;20072;-79
2022/02/23 00:13:23;;;;;;;4.43;3.63;;;;;;;-0.15;68.01;99516.94;4996390;28;20486;-78
2022/02/23 00:15:49;;;;;;;4.93;4.10;;;;;;;-0.08;68.06;99525.44;4996839;28;20545;-80
2022/02/23 00:18:15;;;;;;;5.35;4.00;;;;;;;-0.13;67.65;99527.38;4996362;28;20082;-78
2022/02/23 00:20:41;;;;;;;5.78;3.97;;;;;;;-0.12;67.80;99508.94;4995250;28;20050;-78
2022/02/23 00:23:07;;;;;;;3.90;3.50;;;;;;;-0.10;67.82;99516.78;4978962;28;20129;-80
2022/02/23 00:25:33;;;;;;;5.82;4.22;;;;;;;-0.06;67.54;99524.50;4996542;28;20487;-80
2022/02/23 00:27:59;;;;;;;6.72;4.13;;;;;;;-0.13;67.72;99516.88;4962966;28;20046;-79
2022/02/23 00:30:25;;;;;;;4.80;3.83;;;;;;;-0.08;67.71;99528.06;4978833;28;20108;-81
2022/02/23 00:32:51;;;;;;;4.70;3.72;;;;;;;-0.03;67.63;99523.53;4978933;28;20073;-80
2022/02/23 00:35:17;;;;;;;4.63;3.97;;;;;;;-0.06;67.24;99529.75;4996225;28;20068;-79
2022/02/23 00:37:43;;;;;;;5.75;4.03;;;;;;;0.01;67.68;99519.91;4996413;28;20057;-80
2022/02/23 00:40:09;;;;;;;4.70;3.72;;;;;;;0.05;67.05;99520.66;4979036;28;20042;-80
2022/02/23 00:42:35;;;;;;;5.63;4.00;;;;;;;0.04;66.97;99517.16;4963835;28;20137;-82
2022/02/23 00:45:01;;;;;;;8.85;4.07;;;;;;;0.02;67.03;99518.97;4996456;28;20480;-79
2022/02/23 00:47:27;;;;;;;5.07;4.10;;;;;;;-0.22;67.40;99520.69;4996297;28;20042;-80
2022/02/23 00:49:53;;;;;;;5.03;3.97;;;;;;;-0.28;67.47;99513.84;4996217;28;20046;-80
2022/02/23 00:52:18;;;;;;;4.78;4.13;;;;;;;-0.26;67.39;99512.03;5000444;28;20070;-81
2022/02/23 00:54:44;;;;;;;5.35;3.75;;;;;;;-0.31;67.26;99519.19;4985578;28;20046;-80
2022/02/23 00:57:10;;;;;;;4.75;3.70;;;;;;;-0.35;67.86;99506.22;4997913;28;20101;-79
2022/02/23 00:59:36;;;;;;;4.95;4.07;;;;;;;-0.43;67.69;99514.34;4978955;28;20043;-80
2022/02/23 01:02:02;;;;;;;7.13;4.00;;;;;;;-0.47;68.34;99512.72;4979936;28;20209;-79
2022/02/23 01:04:28;;;;;;;6.38;4.20;;;;;;;-0.51;68.60;99508.50;4996514;28;20449;-80
2022/02/23 01:06:54;;;;;;;5.93;4.22;;;;;;;-0.46;68.39;99508.34;4995823;28;20054;-79
2022/02/23 01:09:20;;;;;;;5.05;4.20;;;;;;;-0.50;68.33;99524.19;4962568;28;20516;-79
2022/02/23 01:11:46;;;;;;;3.67;3.22;;;;;;;-0.57;68.60;99519.19;4995753;28;20042;-79
2022/02/23 01:14:12;;;;;;;4.60;3.88;;;;;;;-0.53;68.31;99524.31;4996235;28;20042;-81
2022/02/23 01:16:38;;;;;;;6.28;3.45;;;;;;;-0.55;68.35;99520.00;4978573;28;20490;-82
2022/02/23 01:19:03;;;;;;;4.70;3.88;;;;;;;-0.68;68.15;99516.88;4995597;28;20061;-81
2022/02/23 01:21:29;;;;;;;6.20;3.88;;;;;;;-0.70;68.52;99521.34;4962390;28;20437;-80
2022/02/23 01:23:55;;;;;;;4.32;3.70;;;;;;;-0.67;68.32;99537.00;4995609;28;20049;-80
2022/02/23 01:26:21;;;;;;;7.82;4.03;;;;;;;-0.66;68.33;99538.72;4995643;28;20077;-81
2022/02/23 01:28:47;;;;;;;4.97;3.95;;;;;;;-0.65;68.08;99540.44;4978227;28;20041;-79
2022/02/23 01:31:13;;;;;;;4.90;3.63;;;;;;;-0.66;67.71;99537.88;4995192;28;20073;-79
2022/02/23 01:33:39;;;;;;;5.80;3.22;;;;;;;-0.73;67.64;99538.03;4993697;28;20053;-79
2022/02/23 01:36:05;;;;;;;5.68;4.10;;;;;;;-0.80;67.99;99539.13;4995558;28;20454;-79
2022/02/23 01:38:31;;;;;;;4.50;3.75;;;;;;;-0.77;67.83;99538.19;4977693;28;20046;-80
2022/02/23 01:40:56;;;;;;;4.07;3.45;;;;;;;-0.82;67.47;99538.34;4977639;28;20046;-79
2022/02/23 01:43:22;;;;;;;3.38;3.08;;;;;;;-0.78;67.19;99528.59;4977384;28;20058;-80
2022/02/23 01:45:48;;;;;;;4.15;2.80;;;;;;;-0.84;67.58;99545.38;4977893;28;20049;-78
2022/02/23 01:48:14;;;;;;;4.30;3.00;;;;;;;-0.85;67.27;99540.19;4977408;28;20053;-81
2022/02/23 01:50:41;;;;;;;5.07;3.10;;;;;;;-0.84;67.31;99524.38;4994829;28;20042;-80
2022/02/23 01:53:07;;;;;;;3.53;2.78;;;;;;;-0.91;66.96;99517.59;4945609;28;20093;-80
2022/02/23 01:55:35;;;;;;;3.72;3.00;;;;;;;-0.90;67.19;99537.72;4977484;28;20069;-79
2022/02/23 01:58:02;;;;;;;2.60;2.40;;;;;;;-0.94;67.46;99533.47;4994712;28;20082;-78
2022/02/23 02:00:28;;;;;;;4.63;3.00;;;;;;;-0.93;67.10;99523.81;4961208;28;20053;-78
2022/02/23 02:02:54;;;;;;;4.35;2.47;;;;;;;-0.96;66.75;99527.41;4994256;28;20050;-78
2022/02/23 02:05:20;;;;;;;4.32;2.78;;;;;;;-0.97;66.81;99528.31;4994455;28;20417;-79
2022/02/23 02:07:46;;;;;;;3.25;2.40;;;;;;;-0.92;67.13;99531.63;4994443;28;20050;-79
2022/02/23 02:10:12;;;;;;;5.75;2.80;;;;;;;-0.91;66.95;99527.25;4994031;28;20042;-78
2022/02/23 02:12:38;;;;;;;3.40;2.35;;;;;;;-0.93;66.79;99526.44;4977214;28;20047;-78
2022/02/23 02:15:05;;;;;;;3.67;2.60;;;;;;;-0.98;66.73;99530.06;4976995;28;20502;-78
2022/02/23 02:17:31;;;;;;;4.93;2.80;;;;;;;-1.00;66.60;99517.91;4944796;28;20048;-79
2022/02/23 02:19:56;;;;;;;2.80;2.60;;;;;;;-1.04;66.53;99516.28;4994606;28;20042;-81
2022/02/23 02:22:22;;;;;;;4.53;2.85;;;;;;;-0.93;66.76;99532.56;4976709;28;20074;-80
2022/02/23 02:24:48;;;;;;;3.38;2.80;;;;;;;-0.93;66.48;99539.56;4994294;28;20153;-80
2022/02/23 02:27:15;;;;;;;3.28;2.97;;;;;;;-0.91;66.49;99533.34;4960664;28;20089;-78
2022/02/23 02:29:42;;;;;;;3.40;2.42;;;;;;;-0.86;66.13;99539.34;4944851;28;20482;-80
2022/02/23 02:32:08;;;;;;;3.30;2.92;;;;;;;-0.94;66.43;99538.72;4960705;28;20414;-81
2022/02/23 02:34:34;;;;;;;2.92;2.60;;;;;;;-1.02;66.60;99551.19;4976637;28;20053;-80
2022/02/23 02:37:00;;;;;;;4.05;2.85;;;;;;;-1.04;66.34;99550.38;4960664;28;20050;-79
2022/02/23 02:39:26;;;;;;;3.33;2.88;;;;;;;-0.98;66.14;99558.94;4977165;28;20046;-80
2022/02/23 02:41:52;;;;;;;5.00;3.10;;;;;;;-0.96;66.55;99551.00;4946337;28;20057;-80
2022/02/23 02:44:18;;;;;;;3.33;2.95;;;;;;;-1.01;66.41;99552.91;4974721;28;20498;-79
2022/02/23 02:46:45;;;;;;;3.25;2.95;;;;;;;-0.92;66.30;99565.75;4981400;28;20046;-79
2022/02/23 02:49:11;;;;;;;2.38;2.17;;;;;;;-0.95;66.07;99563.22;4982684;28;20042;-81
2022/02/23 02:51:37;;;;;;;3.80;2.83;;;;;;;-0.95;66.13;99562.34;4975672;28;20391;-78
2022/02/23 02:54:03;;;;;;;4.38;3.10;;;;;;;-0.93;66.20;99556.16;4958043;28;20494;-80
2022/02/23 02:56:29;;;;;;;3.58;3.10;;;;;;;-0.94;66.39;99566.69;4957539;28;20038;-80
2022/02/23 02:58:55;;;;;;;3.15;2.70;;;;;;;-1.01;66.48;99560.78;4943836;28;20085;-80
2022/02/23 03:01:22;;;;;;;4.78;2.90;;;;;;;-1.05;66.80;99572.28;4978908;28;20471;-80
2022/02/23 03:03:48;;;;;;;3.42;3.13;;;;;;;-1.03;66.93;99567.84;4975442;28;20039;-79
2022/02/23 03:06:14;;;;;;;3.05;2.75;;;;;;;-0.99;66.45;99551.94;4956030;28;20125;-81
2022/02/23 03:08:40;;;;;;;3.75;3.15;;;;;;;-1.02;66.65;99574.78;4939738;28;20038;-80
2022/02/23 03:11:06;;;;;;;4.63;3.35;;;;;;;-1.10;67.01;99574.16;4972711;28;20042;-80
2022/02/23 03:13:32;;;;;;;4.55;2.88;;;;;;;-1.09;66.86;99576.75;4972845;28;20055;-80
2022/02/23 03:15:58;;;;;;;3.83;2.95;;;;;;;-1.09;66.80;99573.25;4972441;28;20427;-79
2022/02/23 03:18:24;;;;;;;6.13;3.47;;;;;;;-1.11;67.05;99572.44;4956472;28;20046;-81
2022/02/23 03:20:50;;;;;;;4.03;3.40;;;;;;;-1.19;67.42;99574.44;4972844;28;20069;-82
2022/02/23 03:23:17;;;;;;;5.28;3.40;;;;;;;-1.17;67.37;99572.63;4976804;28;20043;-80
2022/02/23 03:25:43;;;;;;;3.88;3.28;;;;;;;-1.14;67.43;99568.13;4960739;28;20058;-79
2022/02/23 03:28:09;;;;;;;3.25;2.85;;;;;;;-1.15;67.25;99578.69;4960753;28;20477;-79
2022/02/23 03:30:38;;;;;;;2.88;2.58;;;;;;;-1.17;67.29;99573.47;4978007;28;20101;-79
2022/02/23 03:33:05;;;;;;;5.57;3.40;;;;;;;-1.07;67.31;99579.31;4961085;28;20038;-81
2022/02/23 03:35:31;;;;;;;4.35;2.90;;;;;;;-1.06;66.83;99567.91;4976676;28;20478;-80
2022/02/23 03:37:57;;;;;;;2.58;2.38;;;;;;;-1.07;66.94;99574.06;4928738;28;20094;-80
2022/02/23 03:40:23;;;;;;;4.03;3.10;;;;;;;-1.15;66.79;99582.16;4960258;28;20077;-81
2022/02/23 03:42:49;;;;;;;3.33;2.83;;;;;;;-1.13;67.42;99576.88;4944518;28;20051;-80
2022/02/23 03:45:15;;;;;;;4.15;2.42;;;;;;;-1.09;66.82;99576.75;4963407;28;20522;-81
2022/02/23 03:47:41;;;;;;;3.45;3.10;;;;;;;-1.05;66.93;99572.28;4979656;28;20069;-81
2022/02/23 03:50:07;;;;;;;3.17;2.85;;;;;;;-1.14;66.90;99557.66;4979857;28;20146;-79
2022/02/23 03:52:34;;;;;;;4.43;2.95;;;;;;;-1.04;67.08;99564.34;4963882;28;20052;-82
2022/02/23 03:55:00;;;;;;;4.70;2.75;;;;;;;-1.08;66.95;99567.97;4997049;28;20042;-80
2022/02/23 03:57:26;;;;;;;4.95;2.90;;;;;;;-1.12;67.32;99570.75;4979767;28;20379;-82
2022/02/23 03:59:52;;;;;;;3.13;2.72;;;;;;;-1.08;66.98;99567.13;4931959;28;20046;-82
2022/02/23 04:02:17;;;;;;;6.88;3.15;;;;;;;-1.04;66.73;99574.00;4979437;28;20042;-80
2022/02/23 04:04:43;;;;;;;3.97;3.25;;;;;;;-0.94;66.79;99585.94;4963365;28;20130;-82
2022/02/23 04:07:09;;;;;;;6.45;3.13;;;;;;;-0.89;66.31;99576.16;4947279;28;20449;-82
2022/02/23 04:09:35;;;;;;;4.32;2.72;;;;;;;-0.77;66.25;99588.91;4979527;28;20145;-80
2022/02/23 04:12:01;;;;;;;4.43;3.05;;;;;;;-0.42;67.68;99581.72;4979761;28;20133;-80
2022/02/23 04:14:27;;;;;;;8.95;3.65;;;;;;;-0.48;65.19;99574.03;4979263;28;20049;-89
2022/02/23 04:16:52;;;;;;;2.67;2.33;;;;;;;-0.60;65.21;99584.91;4963229;28;20047;-79
2022/02/23 04:19:18;;;;;;;9.10;2.88;;;;;;;-0.64;65.38;99588.53;4979553;28;20052;-83
2022/02/23 04:21:44;;;;;;;4.80;2.42;;;;;;;-0.54;67.16;99571.59;4947673;28;20513;-87
2022/02/23 04:24:10;;;;;;;2.90;2.70;;;;;;;-0.46;64.93;99572.22;4932137;28;20068;-81
2022/02/23 04:26:36;;;;;;;5.13;2.47;;;;;;;-0.44;64.36;99565.16;4950589;28;20524;-85
2022/02/23 04:29:03;;;;;;;4.80;2.65;;;;;;;-0.48;64.23;99563.53;4997478;28;20050;-81
2022/02/23 04:31:31;;;;;;;4.93;2.80;;;;;;;-0.48;64.37;99568.78;4979699;28;20050;-88
2022/02/23 04:33:58;;;;;;;5.63;3.05;;;;;;;-0.43;64.04;99574.75;4963667;28;20034;-83
2022/02/23 04:36:24;;;;;;;4.68;2.80;;;;;;;-0.38;63.72;99567.56;4978972;28;20052;-81
2022/02/23 04:38:53;;;;;;;4.75;2.72;;;;;;;-0.31;63.52;99576.97;4962994;28;20050;-82
2022/02/23 04:41:19;;;;;;;5.75;2.70;;;;;;;-0.26;64.55;99564.56;4947340;28;20081;-85
2022/02/23 04:43:45;;;;;;;3.88;2.80;;;;;;;-0.15;64.22;99573.84;4930468;28;20050;-82
2022/02/23 04:46:11;;;;;;;2.75;2.55;;;;;;;-0.05;63.16;99562.13;4978531;28;20128;-82
2022/02/23 04:48:38;;;;;;;2.88;2.67;;;;;;;-0.20;62.71;99557.41;4930403;28;20042;-81
2022/02/23 04:51:04;;;;;;;4.45;2.70;;;;;;;-0.19;62.69;99559.09;4962407;28;20057;-82
2022/02/23 04:53:30;;;;;;;4.50;2.70;;;;;;;-0.09;62.55;99550.88;4930208;28;20042;-82
2022/02/23 04:55:56;;;;;;;10.45;2.88;;;;;;;-0.03;62.82;99555.94;4977682;28;20077;-82
2022/02/23 04:58:22;;;;;;;41.63;5.93;;;;;;;0.02;62.03;99563.66;4946705;28;20046;-84
2022/02/23 05:00:48;;;;;;;3.13;2.78;;;;;;;0.07;61.58;99545.09;4994809;28;20101;-82
2022/02/23 05:03:15;;;;;;;3.60;2.55;;;;;;;0.03;61.20;99560.09;4978428;28;20406;-81
2022/02/23 05:05:41;;;;;;;2.78;2.42;;;;;;;-0.02;61.96;99562.03;4995372;28;20425;-80
2022/02/23 05:08:07;;;;;;;3.70;2.50;;;;;;;0.16;61.01;99557.94;4977663;28;20039;-86
2022/02/23 05:10:33;;;;;;;3.13;2.83;;;;;;;0.34;61.32;99569.56;4962215;28;20145;-84
2022/02/23 05:12:59;;;;;;;3.45;2.50;;;;;;;0.50;60.85;99570.78;4961960;28;20038;-85
2022/02/23 05:15:25;;;;;;;3.10;2.80;;;;;;;0.64;60.46;99571.16;4945211;28;20466;-84
2022/02/23 05:17:51;;;;;;;2.80;2.60;;;;;;;0.76;60.05;99584.78;4978280;28;20050;-84
2022/02/23 05:20:17;;;;;;;3.50;3.20;;;;;;;0.87;59.55;99590.50;4950729;28;20053;-82
2022/02/23 05:22:46;;;;;;;3.08;2.78;;;;;;;0.91;58.98;99592.09;4995162;28;20536;-84
2022/02/23 05:25:12;;;;;;;3.00;2.70;;;;;;;0.85;58.77;99581.78;4946272;28;20057;-85
2022/02/23 05:27:39;;;;;;;3.20;2.60;;;;;;;0.95;59.08;99589.31;4961928;28;20062;-84
2022/02/23 05:30:06;;;;;;;2.60;2.40;;;;;;;0.88;58.71;99576.44;4994703;28;20050;-84
2022/02/23 05:32:32;;;;;;;3.88;3.15;;;;;;;0.88;58.40;99593.06;4979155;28;20050;-80
2022/02/23 05:34:58;;;;;;;3.45;2.40;;;;;;;0.88;58.53;99592.22;4977894;28;20092;-85
2022/02/23 05:37:23;;;;;;;5.82;2.40;;;;;;;0.71;58.06;99591.06;4977870;28;20124;-83
2022/02/23 05:39:49;;;;;;;2.90;2.50;;;;;;;0.78;58.38;99596.09;4977344;28;20073;-80
2022/02/23 05:42:15;;;;;;;2.38;2.20;;;;;;;0.83;57.81;99591.50;4944999;28;20046;-82
2022/02/23 05:44:41;;;;;;;3.80;2.50;;;;;;;0.94;57.89;99599.88;4959967;28;20065;-83
2022/02/23 05:47:07;;;;;;;2.55;2.35;;;;;;;0.84;57.37;99585.34;4945203;28;20077;-82
2022/02/23 05:49:33;;;;;;;2.53;2.33;;;;;;;1.04;58.13;99593.34;4945280;28;20434;-83
2022/02/23 05:51:59;;;;;;;2.47;2.28;;;;;;;1.03;57.61;99582.91;4976993;28;20089;-83
2022/02/23 05:54:25;;;;;;;2.97;2.47;;;;;;;1.09;57.23;99583.53;4928372;28;20042;-82
2022/02/23 05:56:51;;;;;;;4.00;2.40;;;;;;;1.37;57.53;99582.47;4964596;28;20051;-85
2022/02/23 05:59:17;;;;;;;4.20;2.40;;;;;;;1.16;57.06;99578.88;4942878;28;20478;-82
2022/02/23 06:01:44;;;;;;;2.67;2.47;;;;;;;1.06;57.26;99585.41;4981962;28;20077;-83
2022/02/23 06:04:10;;;;;;;2.45;1.70;;;;;;;1.17;56.57;99586.72;4975111;28;20082;-82
2022/02/23 06:06:35;;;;;;;2.17;1.95;;;;;;;1.11;57.11;99596.63;4958163;28;20077;-81
2022/02/23 06:09:01;;;;;;;4.35;2.45;;;;;;;1.04;57.07;99603.88;4957248;28;20074;-83
2022/02/23 06:11:27;;;;;;;2.83;2.60;;;;;;;0.82;57.05;99595.91;4941402;28;20101;-83
2022/02/23 06:13:53;;;;;;;2.42;2.22;;;;;;;1.07;57.56;99609.03;4941019;28;20050;-84
2022/02/23 06:16:23;;;;;;;3.20;2.63;;;;;;;1.12;56.98;99598.34;4925464;28;20134;-82
2022/02/23 06:18:50;;;;;;;3.08;2.78;;;;;;;1.10;57.36;99597.56;4941654;28;20074;-83
2022/02/23 06:21:16;;;;;;;3.22;2.25;;;;;;;1.05;57.03;99594.22;4941074;28;20042;-82
2022/02/23 06:23:43;;;;;;;4.93;2.45;;;;;;;1.08;57.19;99587.06;4942632;28;20057;-81
2022/02/23 06:26:09;;;;;;;2.50;2.30;;;;;;;1.10;56.60;99584.38;4961273;28;20054;-82
2022/02/23 06:28:35;;;;;;;2.92;2.15;;;;;;;1.05;57.25;99588.94;4969314;28;20075;-82
2022/02/23 06:31:01;;;;;;;3.72;2.58;;;;;;;1.23;57.46;99597.94;4947525;28;20047;-83
2022/02/23 06:33:28;;;;;;;2.65;1.98;;;;;;;1.12;56.94;99593.06;4958344;28;20050;-81
2022/02/23 06:35:54;;;;;;;4.25;2.90;;;;;;;0.95;57.37;99583.19;4975253;28;20125;-82
2022/02/23 06:38:20;;;;;;;3.15;2.33;;;;;;;0.81;58.13;99588.09;4959330;28;20096;-87
2022/02/23 06:40:47;;;;;;;3.40;2.67;;;;;;;0.90;58.08;99579.84;4960784;28;20035;-81
2022/02/23 06:43:15;;;;;;;2.40;2.20;;;;;;;1.08;57.85;99600.22;4975260;28;20071;-79
2022/02/23 06:45:43;;;;;;;2.53;2.20;;;;;;;0.99;57.84;99582.16;4957163;28;20047;-78
2022/02/23 06:48:09;;;;;;;2.40;2.20;;;;;;;0.98;57.94;99593.59;4924716;28;20657;-80
2022/02/23 06:50:35;;;;;;;2.40;2.20;;;;;;;0.80;57.75;99596.91;4957633;28;20143;-82
2022/02/23 06:53:01;;;;;;;4.22;2.38;;;;;;;0.85;58.44;99571.25;4974782;28;20121;-82
2022/02/23 06:55:27;;;;;;;2.58;2.38;;;;;;;0.84;58.19;99578.31;4925656;28;20042;-80
2022/02/23 06:57:53;;;;;;;2.40;2.17;;;;;;;0.81;58.44;99580.19;4974404;28;20109;-80
2022/02/23 07:00:19;;;;;;;5.15;1.92;;;;;;;0.77;58.25;99563.66;4957065;28;20074;-82
2022/02/23 07:02:45;;;;;;;3.08;2.10;;;;;;;0.70;58.34;99568.28;4914675;29;20052;-83
2022/02/23 07:05:11;;;;;;;2.47;1.95;;;;;;;0.82;58.60;99561.69;4931764;29;20063;-85
2022/02/23 07:07:37;;;;;;;3.90;1.95;;;;;;;1.08;60.86;99573.03;4904824;29;20052;-82
2022/02/23 07:10:20;;;;;;;5.85;2.22;;;;;;;1.33;58.37;99565.06;4907545;29;20123;-84
2022/02/23 07:12:46;;;;;;;2.17;2.05;;;;;;;1.47;57.54;99573.31;4921336;29;20056;-83
2022/02/23 07:15:11;;;;;;;4.28;2.42;;;;;;;1.53;57.32;99591.47;4934993;29;20061;-84
2022/02/23 07:17:37;;;;;;;2.40;2.20;;;;;;;1.42;57.19;99575.25;4932617;29;20052;-83
2022/02/23 07:20:04;;;;;;;3.28;2.30;;;;;;;1.35;57.17;99592.19;4915287;29;20498;-81
2022/02/23 07:22:30;;;;;;;2.40;2.20;;;;;;;1.43;57.61;99587.50;4931000;29;20058;-86
2022/02/23 07:24:56;;;;;;;2.38;2.17;;;;;;;1.53;57.67;99575.69;4900404;29;20048;-82
2022/02/23 07:27:23;;;;;;;2.50;2.30;;;;;;;1.52;56.99;99573.13;4914834;29;20537;-82
2022/02/23 07:29:49;;;;;;;2.40;2.20;;;;;;;1.63;56.65;99574.41;4898880;29;20080;-83
2022/02/23 07:32:14;;;;;;;3.92;2.50;;;;;;;1.74;56.62;99583.66;4898861;29;20090;-82
2022/02/23 07:34:42;;;;;;;2.60;2.40;;;;;;;1.64;56.56;99604.25;4954765;28;20058;-83
2022/02/23 07:37:09;;;;;;;2.63;1.98;;;;;;;1.42;56.66;99607.69;4941859;28;20465;-85
2022/02/23 07:39:35;;;;;;;3.90;1.90;;;;;;;1.32;56.85;99592.34;4941330;28;20418;-85
2022/02/23 07:42:01;;;;;;;2.20;2.00;;;;;;;1.30;57.10;99602.06;4925413;28;20055;-85
2022/02/23 07:44:27;;;;;;;8.35;2.25;;;;;;;1.28;57.08;99594.22;4957168;28;20533;-85
2022/02/23 07:46:53;;;;;;;2.30;1.90;;;;;;;1.01;57.41;99604.00;4974245;28;20086;-85
2022/02/23 07:49:19;;;;;;;5.13;2.28;;;;;;;0.97;58.02;99591.88;4894579;28;20410;-83
2022/02/23 07:51:44;;;;;;;2.30;2.10;;;;;;;0.91;57.97;99586.84;4941222;28;20050;-81
2022/02/23 07:54:10;;;;;;;3.85;2.15;;;;;;;1.01;58.30;99589.97;4941093;28;20055;-84
2022/02/23 07:56:36;;;;;;;2.20;2.00;;;;;;;0.96;58.22;99590.16;4941482;28;20050;-87
2022/02/23 07:59:02;;;;;;;3.13;2.15;;;;;;;1.00;57.90;99581.22;4956935;28;20074;-83
2022/02/23 08:01:31;;;;;;;6.43;2.17;;;;;;;0.96;57.46;99590.16;4956460;28;20082;-84
2022/02/23 08:03:57;;;;;;;2.03;1.75;;;;;;;1.06;57.35;99581.00;4957145;28;20043;-85
2022/02/23 08:06:23;;;;;;;2.28;2.08;;;;;;;1.03;57.17;99591.66;4956659;28;20109;-86
2022/02/23 08:08:49;;;;;;;4.57;2.40;;;;;;;1.01;56.98;99582.94;4948092;28;20139;-86
2022/02/23 08:11:18;;;;;;;2.67;2.15;;;;;;;1.03;57.04;99578.50;4963885;28;20117;-86
2022/02/23 08:13:45;;;;;;;4.78;2.53;;;;;;;1.07;57.55;99574.81;4932347;28;20052;-86
2022/02/23 08:21:41;;;;;;;3.97;2.28;;;;;;;1.39;57.13;99576.25;4954849;28;20074;-86
2022/02/23 08:24:07;;;;;;;2.65;2.45;;;;;;;1.35;56.38;99579.03;4915870;28;20058;-87
2022/02/23 08:26:33;;;;;;;2.78;2.40;;;;;;;1.37;56.51;99574.56;4933372;28;20128;-84
2022/02/23 08:29:00;;;;;;;3.45;2.47;;;;;;;1.50;56.34;99580.22;4962466;28;20494;-83
2022/02/23 08:31:26;;;;;;;5.65;2.70;;;;;;;1.45;55.80;99572.50;4950698;28;20050;-84
2022/02/23 08:33:52;;;;;;;2.90;2.13;;;;;;;1.44;55.61;99571.63;4950319;28;20173;-86
2022/02/23 08:36:18;;;;;;;5.70;2.10;;;;;;;1.02;55.51;99558.34;4927309;28;20042;-87
2022/02/23 08:38:46;;;;;;;5.82;2.35;;;;;;;1.20;55.29;99588.38;4962210;28;20059;-86
2022/02/23 08:41:12;;;;;;;3.15;2.33;;;;;;;1.26;55.73;99584.66;4947372;29;20142;-85
2022/02/23 08:43:38;;;;;;;2.22;1.90;;;;;;;1.26;55.23;99572.34;4926185;29;20166;-86
2022/02/23 08:46:04;;;;;;;7.78;1.88;;;;;;;1.10;55.05;99598.41;4955841;29;20043;-85
2022/02/23 08:48:30;;;;;;;2.30;2.10;;;;;;;1.19;55.22;99598.03;4939749;29;20046;-86
2022/02/23 08:50:56;;;;;;;1.77;1.67;;;;;;;1.13;54.71;99603.56;4943809;29;20126;-90
2022/02/23 08:53:23;;;;;;;2.33;1.60;;;;;;;0.96;54.62;99579.63;4941528;28;20042;-88
2022/02/23 08:55:49;;;;;;;4.20;1.80;;;;;;;1.13;54.86;99566.69;4925335;29;20427;-90
2022/02/23 08:58:15;;;;;;;2.35;2.00;;;;;;;1.42;54.59;99562.06;4939126;29;20066;-86
2022/02/23 09:00:41;;;;;;;3.15;1.95;;;;;;;1.50;53.95;99570.53;4909080;29;20558;-87
2022/02/23 09:03:07;;;;;;;1.95;1.77;;;;;;;1.49;53.63;99576.72;4923234;29;20055;-84
2022/02/23 09:05:33;;;;;;;2.08;1.83;;;;;;;1.55;53.35;99584.41;4954898;29;20191;-83
2022/02/23 09:07:59;;;;;;;2.83;1.70;;;;;;;1.62;52.79;99585.03;4908289;28;20047;-85
2022/02/23 09:10:25;;;;;;;1.80;1.70;;;;;;;1.70;53.09;99562.69;4923927;29;20561;-87
2022/02/23 09:12:51;;;;;;;4.65;2.00;;;;;;;2.09;52.85;99564.59;4955008;29;20150;-86
2022/02/23 09:15:17;;;;;;;3.25;2.08;;;;;;;2.45;52.79;99569.25;4965592;28;20065;-82
2022/02/23 09:17:44;;;;;;;2.83;1.88;;;;;;;2.54;51.89;99560.94;4931997;28;20034;-83
2022/02/23 09:20:11;;;;;;;7.22;3.05;;;;;;;2.77;51.56;99543.22;4994488;28;20528;-82
2022/02/23 09:22:36;;;;;;;3.63;2.10;;;;;;;2.85;50.58;99570.13;4962364;28;20046;-87
2022/02/23 09:25:03;;;;;;;5.45;2.42;;;;;;;2.99;50.58;99556.31;4931469;28;20133;-85
2022/02/23 09:27:29;;;;;;;4.75;2.38;;;;;;;3.16;50.37;99548.47;4946839;28;20513;-83
2022/02/23 09:29:55;;;;;;;8.38;1.80;;;;;;;3.21;49.20;99561.47;4995780;28;20082;-88
2022/02/23 09:32:21;;;;;;;3.40;1.35;;;;;;;3.13;49.33;99554.75;4929615;28;20054;-86
2022/02/23 09:34:48;;;;;;;3.15;2.00;;;;;;;2.89;49.60;99556.72;4962465;28;20113;-86
2022/02/23 09:37:15;;;;;;;3.15;2.00;;;;;;;2.88;50.24;99551.50;4978417;28;20045;-87
2022/02/23 09:39:41;;;;;;;1.70;1.60;;;;;;;2.83;50.30;99548.25;4978201;28;20082;-84
2022/02/23 09:42:10;;;;;;;2.08;1.90;;;;;;;2.66;50.13;99541.06;4961501;28;20418;-84
2022/02/23 09:44:39;;;;;;;2.33;1.88;;;;;;;2.30;51.02;99519.81;4946034;28;20462;-85
2022/02/23 09:47:05;;;;;;;5.30;2.25;;;;;;;2.30;51.79;99531.22;4914573;28;20128;-87
2022/02/23 09:49:31;;;;;;;2.28;1.88;;;;;;;2.22;51.70;99548.25;4962012;28;20509;-86
2022/02/23 09:51:57;;;;;;;2.22;2.00;;;;;;;1.92;52.00;99546.03;4930799;28;20046;-84
2022/02/23 09:54:23;;;;;;;4.55;2.15;;;;;;;1.98;52.21;99540.47;4962169;28;20056;-84
2022/02/23 09:56:49;;;;;;;3.80;2.25;;;;;;;2.00;51.90;99538.66;4964783;28;20129;-85
2022/02/23 09:59:14;;;;;;;4.85;2.42;;;;;;;1.96;52.23;99526.50;4952106;28;20057;-85
2022/02/23 10:01:41;;;;;;;3.72;2.15;;;;;;;1.99;52.51;99530.78;4949513;28;20136;-85
2022/02/23 10:04:07;;;;;;;5.88;2.30;;;;;;;1.78;52.62;99536.03;4979309;28;20569;-86
2022/02/23 10:06:34;;;;;;;5.00;2.30;;;;;;;1.86;52.36;99535.72;4962275;28;20042;-83
2022/02/23 10:09:11;;;;;;;2.55;2.35;;;;;;;1.68;52.82;99545.22;4980601;28;20052;-84
2022/02/23 10:11:38;;;;;;;3.65;2.30;;;;;;;1.66;52.50;99532.13;4957166;28;20054;-84
2022/02/23 10:14:04;;;;;;;3.28;2.08;;;;;;;1.67;52.54;99530.34;4963611;28;20046;-84
2022/02/23 10:16:39;;;;;;;2.67;1.83;;;;;;;1.62;52.88;99522.63;4978582;28;20042;-85
2022/02/23 10:19:12;;;;;;;3.35;2.60;;;;;;;1.58;52.86;99521.03;4962047;28;20110;-86
2022/02/23 10:21:59;;;;;;;3.85;3.00;;;;;;;1.65;52.92;99519.84;4962945;28;20441;-85
2022/02/23 10:24:25;;;;;;;6.43;2.90;;;;;;;1.64;53.21;99531.31;4978934;28;20516;-86
2022/02/23 10:27:01;;;;;;;4.68;3.00;;;;;;;1.64;53.62;99533.94;4961658;28;20140;-83
2022/02/23 10:29:29;;;;;;;8.13;3.40;;;;;;;1.74;53.97;99538.88;4946136;28;20100;-84
2022/02/23 10:31:56;;;;;;;6.22;3.50;;;;;;;1.86;53.84;99541.84;4913702;28;20046;-87
2022/02/23 10:34:21;;;;;;;7.60;3.13;;;;;;;1.96;53.69;99547.59;4945433;28;20050;-87
2022/02/23 10:36:58;;;;;;;6.95;2.78;;;;;;;2.02;52.91;99549.13;4947706;28;20076;-84
2022/02/23 10:39:36;;;;;;;7.90;3.38;;;;;;;2.16;53.26;99550.25;4978384;28;20042;-84
2022/02/23 10:42:30;;;;;;;7.07;3.40;;;;;;;2.27;52.83;99543.66;4946153;28;20046;-84
2022/02/23 10:44:58;;;;;;;9.52;3.38;;;;;;;2.14;52.53;99545.94;4969217;28;20054;-85
2022/02/23 10:47:25;;;;;;;5.80;3.15;;;;;;;2.13;53.17;99536.34;4962807;28;20110;-84
2022/02/23 10:50:04;;;;;;;8.18;3.45;;;;;;;2.16;52.54;99528.31;4977521;28;20042;-84
2022/02/23 10:52:31;;;;;;;6.97;3.22;;;;;;;2.47;52.52;99533.09;4961913;28;20449;-85
2022/02/23 10:55:23;;;;;;;6.20;3.50;;;;;;;2.65;51.97;99511.16;4961375;28;20046;-84
2022/02/23 10:57:52;;;;;;;11.70;3.70;;;;;;;2.66;51.91;99514.66;4997061;28;20127;-84
2022/02/23 11:00:29;;;;;;;6.18;3.75;;;;;;;2.65;52.30;99505.91;4961772;28;20045;-84
2022/02/23 11:02:55;;;;;;;9.40;3.78;;;;;;;2.76;52.23;99496.66;4946703;28;20050;-85
2022/02/23 11:05:23;;;;;;;6.50;3.40;;;;;;;2.65;51.85;99503.25;4960761;28;20053;-85
2022/02/23 11:07:50;;;;;;;6.85;3.50;;;;;;;2.62;51.30;99490.19;4993681;28;20148;-84
2022/02/23 11:10:17;;;;;;;8.10;3.95;;;;;;;2.71;52.28;99493.34;4960454;28;20050;-85
2022/02/23 11:12:54;;;;;;;8.65;3.47;;;;;;;2.61;51.40;99517.50;4960359;28;20062;-85
2022/02/23 11:15:22;;;;;;;10.85;4.00;;;;;;;2.32;52.01;99502.13;4976394;28;20054;-83
2022/02/23 11:17:49;;;;;;;9.30;3.80;;;;;;;2.36;52.22;99498.41;4960416;28;20076;-84
2022/02/23 11:20:26;;;;;;;7.60;4.10;;;;;;;2.46;52.87;99501.50;4960312;28;20105;-85
2022/02/23 11:22:56;;;;;;;7.75;3.90;;;;;;;2.53;52.20;99514.38;4945114;28;20042;-85
2022/02/23 11:25:26;;;;;;;9.02;4.00;;;;;;;2.55;52.36;99504.59;4992704;28;20049;-86
2022/02/23 11:28:16;;;;;;;8.05;4.13;;;;;;;2.61;52.37;99499.03;4960453;28;20494;-83
2022/02/23 11:30:42;;;;;;;13.90;4.30;;;;;;;2.62;53.53;99484.91;4960579;28;20050;-86
2022/02/23 11:33:08;;;;;;;9.88;3.97;;;;;;;2.60;52.02;99510.53;4960389;28;20054;-81
2022/02/23 11:35:46;;;;;;;8.15;3.88;;;;;;;2.70;52.53;99507.47;4976378;28;20128;-86
2022/02/23 11:38:20;;;;;;;10.57;3.63;;;;;;;2.71;52.15;99506.53;4961601;28;20125;-81
2022/02/23 11:40:48;;;;;;;5.55;3.10;;;;;;;2.06;52.63;99522.53;4947253;28;20405;-81
2022/02/23 11:43:33;;;;;;;4.43;2.90;;;;;;;1.80;53.41;99521.00;4982647;28;20466;-83